sensor_id;sensor_type;location;lat;lon;timestamp;pressure;altitude;pressure_sealevel;temperature;humidity
78123;BME280;67376;44.802;10.332;2023-07-16T00:01:20;100884.72;;;29.90;46.83
78123;BME280;67376;44.802;10.332;2023-07-16T00:03:45;100890.22;;;29.90;47.33
78123;BME280;67376;44.802;10.332;2023-07-16T00:06:10;100891.03;;;29.91;47.30
78123;BME280;67376;44.802;10.332;2023-07-16T00:08:36;100891.03;;;29.91;46.84
78123;BME280;67376;44.802;10.332;2023-07-16T00:11:03;100890.22;;;29.90;47.33
78123;BME280;67376;44.802;10.332;2023-07-16T00:13:28;100893.78;;;29.91;46.88
78123;BME280;67376;44.802;10.332;2023-07-16T00:15:53;100892.97;;;29.90;47.80
78123;BME280;67376;44.802;10.332;2023-07-16T00:18:18;100898.47;;;29.90;47.90
78123;BME280;67376;44.802;10.332;2023-07-16T00:20:44;100896.56;;;29.91;47.92
78123;BME280;67376;44.802;10.332;2023-07-16T00:23:09;100892.16;;;29.90;46.79
78123;BME280;67376;44.802;10.332;2023-07-16T00:25:34;100894.91;;;29.90;46.63
78123;BME280;67376;44.802;10.332;2023-07-16T00:28:00;100895.72;;;29.90;46.95
78123;BME280;67376;44.802;10.332;2023-07-16T00:30:25;100898.47;;;29.90;47.78
78123;BME280;67376;44.802;10.332;2023-07-16T00:32:50;100896.56;;;29.91;46.62
78123;BME280;67376;44.802;10.332;2023-07-16T00:35:16;100895.72;;;29.90;47.26
78123;BME280;67376;44.802;10.332;2023-07-16T00:37:41;100902.06;;;29.91;47.57
78123;BME280;67376;44.802;10.332;2023-07-16T00:40:06;100884.72;;;29.90;47.52
78123;BME280;67376;44.802;10.332;2023-07-16T00:42:32;100880.84;;;29.92;47.72
78123;BME280;67376;44.802;10.332;2023-07-16T00:44:58;100883.91;;;29.90;47.24
78123;BME280;67376;44.802;10.332;2023-07-16T00:47:23;100877.28;;;29.91;47.12
78123;BME280;67376;44.802;10.332;2023-07-16T00:49:48;100880.84;;;29.92;46.78
78123;BME280;67376;44.802;10.332;2023-07-16T00:52:15;100881.66;;;29.92;46.72
78123;BME280;67376;44.802;10.332;2023-07-16T00:54:41;100882.78;;;29.91;47.64
78123;BME280;67376;44.802;10.332;2023-07-16T00:57:06;100880.84;;;29.92;46.87
78123;BME280;67376;44.802;10.332;2023-07-16T00:59:33;100874.53;;;29.91;46.67
78123;BME280;67376;44.802;10.332;2023-07-16T01:01:58;100877.28;;;29.91;47.23
78123;BME280;67376;44.802;10.332;2023-07-16T01:04:24;100876.16;;;29.92;46.88
78123;BME280;67376;44.802;10.332;2023-07-16T01:06:50;100866.25;;;29.91;47.78
78123;BME280;67376;44.802;10.332;2023-07-16T01:09:18;100872.59;;;29.92;46.90
78123;BME280;67376;44.802;10.332;2023-07-16T01:11:45;100866.25;;;29.91;46.54
78123;BME280;67376;44.802;10.332;2023-07-16T01:14:12;100867.91;;;29.92;46.81
78123;BME280;67376;44.802;10.332;2023-07-16T01:16:37;100864.31;;;29.92;46.82
78123;BME280;67376;44.802;10.332;2023-07-16T01:19:03;100862.69;;;29.90;46.73
78123;BME280;67376;44.802;10.332;2023-07-16T01:21:31;100865.16;;;29.92;46.83
78123;BME280;67376;44.802;10.332;2023-07-16T01:26:39;100872.28;;;29.93;47.19
78123;BME280;67376;44.802;10.332;2023-07-16T01:29:29;100862.41;;;29.92;47.04
78123;BME280;67376;44.802;10.332;2023-07-16T01:31:56;100865.16;;;29.92;47.60
78123;BME280;67376;44.802;10.332;2023-07-16T01:34:22;100858.81;;;29.92;47.16
78123;BME280;67376;44.802;10.332;2023-07-16T01:36:49;100854.13;;;29.92;47.22
78123;BME280;67376;44.802;10.332;2023-07-16T01:39:14;100865.97;;;29.93;47.20
78123;BME280;67376;44.802;10.332;2023-07-16T01:41:40;100860.47;;;29.93;46.94
78123;BME280;67376;44.802;10.332;2023-07-16T01:44:05;100858.81;;;29.92;46.77
78123;BME280;67376;44.802;10.332;2023-07-16T01:46:31;100859.63;;;29.92;46.77
78123;BME280;67376;44.802;10.332;2023-07-16T01:48:56;100853.31;;;29.92;46.69
78123;BME280;67376;44.802;10.332;2023-07-16T01:51:22;100857.72;;;29.93;47.62
78123;BME280;67376;44.802;10.332;2023-07-16T01:53:47;100860.47;;;29.93;47.38
78123;BME280;67376;44.802;10.332;2023-07-16T01:56:12;100860.47;;;29.93;46.70
78123;BME280;67376;44.802;10.332;2023-07-16T01:58:38;100867.91;;;29.92;46.72
78123;BME280;67376;44.802;10.332;2023-07-16T02:01:03;100859.63;;;29.92;47.16
78123;BME280;67376;44.802;10.332;2023-07-16T02:03:28;100863.50;;;29.91;46.84
78123;BME280;67376;44.802;10.332;2023-07-16T02:05:54;100862.41;;;29.92;46.66
78123;BME280;67376;44.802;10.332;2023-07-16T02:08:19;100865.16;;;29.92;46.81
78123;BME280;67376;44.802;10.332;2023-07-16T02:10:47;100867.09;;;29.92;47.20
78123;BME280;67376;44.802;10.332;2023-07-16T02:13:12;100862.41;;;29.92;47.52
78123;BME280;67376;44.802;10.332;2023-07-16T02:15:37;100865.97;;;29.93;46.52
78123;BME280;67376;44.802;10.332;2023-07-16T02:18:03;100861.56;;;29.92;46.80
78123;BME280;67376;44.802;10.332;2023-07-16T02:20:29;100869.84;;;29.92;46.98
78123;BME280;67376;44.802;10.332;2023-07-16T02:22:54;100868.72;;;29.93;47.05
78123;BME280;67376;44.802;10.332;2023-07-16T02:25:20;100856.88;;;29.92;47.53
78123;BME280;67376;44.802;10.332;2023-07-16T02:27:45;100865.97;;;29.93;46.73
78123;BME280;67376;44.802;10.332;2023-07-16T02:30:10;100862.41;;;29.92;47.11
78123;BME280;67376;44.802;10.332;2023-07-16T02:32:36;100864.31;;;29.92;46.74
78123;BME280;67376;44.802;10.332;2023-07-16T02:35:01;100863.22;;;29.93;46.41
78123;BME280;67376;44.802;10.332;2023-07-16T02:37:28;100856.88;;;29.92;46.43
78123;BME280;67376;44.802;10.332;2023-07-16T02:39:53;100854.13;;;29.92;47.57
78123;BME280;67376;44.802;10.332;2023-07-16T02:42:18;100857.72;;;29.93;46.58
78123;BME280;67376;44.802;10.332;2023-07-16T02:44:44;100856.88;;;29.92;46.62
78123;BME280;67376;44.802;10.332;2023-07-16T02:47:12;100869.03;;;29.91;47.15
78123;BME280;67376;44.802;10.332;2023-07-16T02:49:38;100867.09;;;29.92;46.58
78123;BME280;67376;44.802;10.332;2023-07-16T02:52:04;100869.53;;;29.93;46.99
78123;BME280;67376;44.802;10.332;2023-07-16T02:54:29;100869.53;;;29.93;46.54
78123;BME280;67376;44.802;10.332;2023-07-16T02:56:54;100859.94;;;29.90;47.42
78123;BME280;67376;44.802;10.332;2023-07-16T02:59:20;100862.41;;;29.92;46.87
78123;BME280;67376;44.802;10.332;2023-07-16T03:01:45;100872.59;;;29.92;46.99
78123;BME280;67376;44.802;10.332;2023-07-16T03:04:10;100869.84;;;29.92;47.13
78123;BME280;67376;44.802;10.332;2023-07-16T03:06:36;100876.16;;;29.92;46.70
78123;BME280;67376;44.802;10.332;2023-07-16T03:09:01;100874.53;;;29.91;46.69
78123;BME280;67376;44.802;10.332;2023-07-16T03:11:26;100884.41;;;29.92;47.08
78123;BME280;67376;44.802;10.332;2023-07-16T03:13:51;100875.34;;;29.92;47.09
78123;BME280;67376;44.802;10.332;2023-07-16T03:16:17;100883.59;;;29.92;47.11
78123;BME280;67376;44.802;10.332;2023-07-16T03:18:43;100883.59;;;29.92;46.96
78123;BME280;67376;44.802;10.332;2023-07-16T03:21:08;100881.66;;;29.92;47.05
78123;BME280;67376;44.802;10.332;2023-07-16T03:23:34;100881.66;;;29.92;46.83
78123;BME280;67376;44.802;10.332;2023-07-16T03:25:59;100870.94;;;29.90;46.93
78123;BME280;67376;44.802;10.332;2023-07-16T03:28:24;100869.84;;;29.92;46.85
78123;BME280;67376;44.802;10.332;2023-07-16T03:30:50;100865.16;;;29.92;47.57
78123;BME280;67376;44.802;10.332;2023-07-16T03:33:16;100869.03;;;29.91;46.64
78123;BME280;67376;44.802;10.332;2023-07-16T03:35:44;100869.03;;;29.91;47.35
78123;BME280;67376;44.802;10.332;2023-07-16T03:38:10;100859.13;;;29.90;46.94
78123;BME280;67376;44.802;10.332;2023-07-16T03:40:35;100865.44;;;29.90;47.06
78123;BME280;67376;44.802;10.332;2023-07-16T03:43:01;100869.84;;;29.92;46.57
78123;BME280;67376;44.802;10.332;2023-07-16T03:45:26;100867.09;;;29.92;46.52
78123;BME280;67376;44.802;10.332;2023-07-16T03:47:51;100867.09;;;29.92;47.11
78123;BME280;67376;44.802;10.332;2023-07-16T03:50:16;100864.31;;;29.92;46.58
78123;BME280;67376;44.802;10.332;2023-07-16T03:52:43;100862.69;;;29.90;47.42
78123;BME280;67376;44.802;10.332;2023-07-16T03:55:08;100864.31;;;29.92;47.53
78123;BME280;67376;44.802;10.332;2023-07-16T03:57:33;100870.94;;;29.90;47.12
78123;BME280;67376;44.802;10.332;2023-07-16T03:59:59;100866.25;;;29.91;46.39
78123;BME280;67376;44.802;10.332;2023-07-16T04:02:24;100867.91;;;29.92;47.28
78123;BME280;67376;44.802;10.332;2023-07-16T04:04:49;100857.19;;;29.90;46.59
78123;BME280;67376;44.802;10.332;2023-07-16T04:07:15;100861.56;;;29.92;47.55
78123;BME280;67376;44.802;10.332;2023-07-16T04:09:40;100863.50;;;29.91;47.44
78123;BME280;67376;44.802;10.332;2023-07-16T04:12:06;100862.69;;;29.90;46.82
78123;BME280;67376;44.802;10.332;2023-07-16T04:14:31;100864.63;;;29.90;46.88
78123;BME280;67376;44.802;10.332;2023-07-16T04:16:57;100861.06;;;29.89;47.53
78123;BME280;67376;44.802;10.332;2023-07-16T04:19:22;100863.50;;;29.91;47.59
78123;BME280;67376;44.802;10.332;2023-07-16T04:21:47;100866.56;;;29.89;46.83
78123;BME280;67376;44.802;10.332;2023-07-16T04:24:12;100881.16;;;29.90;46.85
78123;BME280;67376;44.802;10.332;2023-07-16T04:26:38;100881.97;;;29.90;47.00
78123;BME280;67376;44.802;10.332;2023-07-16T04:29:03;100878.09;;;29.92;47.32
78123;BME280;67376;44.802;10.332;2023-07-16T04:31:28;100877.28;;;29.91;46.89
78123;BME280;67376;44.802;10.332;2023-07-16T04:33:53;100880.31;;;29.89;46.26
78123;BME280;67376;44.802;10.332;2023-07-16T04:36:18;100881.97;;;29.90;47.46
78123;BME280;67376;44.802;10.332;2023-07-16T04:38:44;100882.25;;;29.89;46.41
78123;BME280;67376;44.802;10.332;2023-07-16T04:41:09;100892.16;;;29.90;46.49
78123;BME280;67376;44.802;10.332;2023-07-16T04:43:34;100894.09;;;29.89;46.73
78123;BME280;67376;44.802;10.332;2023-07-16T04:46:00;100894.09;;;29.89;46.94
78123;BME280;67376;44.802;10.332;2023-07-16T04:48:25;100895.72;;;29.90;46.95
78123;BME280;67376;44.802;10.332;2023-07-16T04:50:51;100893.28;;;29.89;46.85
78123;BME280;67376;44.802;10.332;2023-07-16T04:53:17;100900.41;;;29.90;46.63
78123;BME280;67376;44.802;10.332;2023-07-16T04:55:43;100893.28;;;29.89;47.22
78123;BME280;67376;44.802;10.332;2023-07-16T04:58:10;100893.28;;;29.89;47.20
78123;BME280;67376;44.802;10.332;2023-07-16T05:00:35;100886.94;;;29.88;46.73
78123;BME280;67376;44.802;10.332;2023-07-16T07:39:19;100970.91;;;29.67;47.36
78123;BME280;67376;44.802;10.332;2023-07-16T07:41:44;100972.53;;;29.68;47.19
78123;BME280;67376;44.802;10.332;2023-07-16T07:44:10;100977.44;;;29.71;47.50
78123;BME280;67376;44.802;10.332;2023-07-16T07:46:35;100978.28;;;29.72;47.25
78123;BME280;67376;44.802;10.332;2023-07-16T07:49:00;100977.97;;;29.73;47.16
78123;BME280;67376;44.802;10.332;2023-07-16T07:51:25;100979.63;;;29.74;46.67
78123;BME280;67376;44.802;10.332;2023-07-16T07:53:51;100978.81;;;29.74;47.16
78123;BME280;67376;44.802;10.332;2023-07-16T07:56:16;100971.38;;;29.74;46.54
78123;BME280;67376;44.802;10.332;2023-07-16T07:58:41;100973.00;;;29.75;46.90
78123;BME280;67376;44.802;10.332;2023-07-16T08:01:07;100974.66;;;29.76;46.31
78123;BME280;67376;44.802;10.332;2023-07-16T08:03:33;100976.28;;;29.77;47.24
78123;BME280;67376;44.802;10.332;2023-07-16T08:05:58;100973.53;;;29.77;46.81
78123;BME280;67376;44.802;10.332;2023-07-16T08:08:23;100981.78;;;29.77;46.57
78123;BME280;67376;44.802;10.332;2023-07-16T08:10:49;100971.59;;;29.78;46.48
78123;BME280;67376;44.802;10.332;2023-07-16T08:13:14;100969.66;;;29.78;47.12
78123;BME280;67376;44.802;10.332;2023-07-16T08:15:39;100969.66;;;29.78;47.03
78123;BME280;67376;44.802;10.332;2023-07-16T08:18:04;100968.03;;;29.77;46.79
78123;BME280;67376;44.802;10.332;2023-07-16T08:20:29;100964.16;;;29.78;46.17
78123;BME280;67376;44.802;10.332;2023-07-16T08:22:55;100966.63;;;29.80;47.05
78123;BME280;67376;44.802;10.332;2023-07-16T08:25:20;100967.44;;;29.80;47.32
78123;BME280;67376;44.802;10.332;2023-07-16T08:27:46;100967.44;;;29.80;47.33
78123;BME280;67376;44.802;10.332;2023-07-16T08:30:11;100969.06;;;29.81;47.13
78123;BME280;67376;44.802;10.332;2023-07-16T08:32:36;100976.50;;;29.81;46.82
78123;BME280;67376;44.802;10.332;2023-07-16T08:35:02;100970.19;;;29.80;47.19
78123;BME280;67376;44.802;10.332;2023-07-16T08:37:27;100981.19;;;29.80;46.79
78123;BME280;67376;44.802;10.332;2023-07-16T08:39:52;100971.81;;;29.81;46.58
78123;BME280;67376;44.802;10.332;2023-07-16T08:42:20;100966.31;;;29.81;46.97
78123;BME280;67376;44.802;10.332;2023-07-16T08:44:46;100976.22;;;29.82;46.37
78123;BME280;67376;44.802;10.332;2023-07-16T08:47:13;100974.59;;;29.81;46.77
78123;BME280;67376;44.802;10.332;2023-07-16T08:49:39;100964.38;;;29.82;46.68
78123;BME280;67376;44.802;10.332;2023-07-16T08:52:04;100978.16;;;29.82;46.77
78123;BME280;67376;44.802;10.332;2023-07-16T08:54:30;100967.16;;;29.82;46.74
78123;BME280;67376;44.802;10.332;2023-07-16T08:56:55;100970.72;;;29.82;47.01
78123;BME280;67376;44.802;10.332;2023-07-16T08:59:20;100973.47;;;29.82;46.71
78123;BME280;67376;44.802;10.332;2023-07-16T09:01:48;100972.66;;;29.82;46.50
78123;BME280;67376;44.802;10.332;2023-07-16T09:04:14;100979.78;;;29.83;46.86
78123;BME280;67376;44.802;10.332;2023-07-16T09:06:40;100979.78;;;29.83;46.30
78123;BME280;67376;44.802;10.332;2023-07-16T09:09:05;100988.06;;;29.83;46.21
78123;BME280;67376;44.802;10.332;2023-07-16T09:11:30;100983.66;;;29.82;46.68
78123;BME280;67376;44.802;10.332;2023-07-16T09:13:55;100985.31;;;29.83;46.66
78123;BME280;67376;44.802;10.332;2023-07-16T09:16:21;100994.38;;;29.83;46.75
78123;BME280;67376;44.802;10.332;2023-07-16T09:18:46;100986.13;;;29.83;46.85
78123;BME280;67376;44.802;10.332;2023-07-16T09:21:12;100988.06;;;29.83;46.04
78123;BME280;67376;44.802;10.332;2023-07-16T09:23:37;100984.19;;;29.84;46.59
78123;BME280;67376;44.802;10.332;2023-07-16T09:26:03;100994.38;;;29.83;46.89
78123;BME280;67376;44.802;10.332;2023-07-16T09:28:30;100990.81;;;29.83;46.17
78123;BME280;67376;44.802;10.332;2023-07-16T09:30:55;100985.31;;;29.83;46.29
78123;BME280;67376;44.802;10.332;2023-07-16T09:33:21;100986.13;;;29.83;46.51
78123;BME280;67376;44.802;10.332;2023-07-16T09:35:48;100988.88;;;29.83;46.30
78123;BME280;67376;44.802;10.332;2023-07-16T09:38:13;100994.38;;;29.83;46.25
78123;BME280;67376;44.802;10.332;2023-07-16T09:40:39;100997.13;;;29.83;46.41
78123;BME280;67376;44.802;10.332;2023-07-16T09:43:07;100995.19;;;29.84;47.07
78123;BME280;67376;44.802;10.332;2023-07-16T09:45:33;100992.44;;;29.84;47.06
78123;BME280;67376;44.802;10.332;2023-07-16T09:47:58;100986.94;;;29.84;46.72
78123;BME280;67376;44.802;10.332;2023-07-16T09:50:24;100983.38;;;29.83;46.05
78123;BME280;67376;44.802;10.332;2023-07-16T09:52:52;100995.19;;;29.84;46.58
78123;BME280;67376;44.802;10.332;2023-07-16T09:55:17;100991.34;;;29.85;46.28
78123;BME280;67376;44.802;10.332;2023-07-16T09:57:43;100987.75;;;29.84;46.21
78123;BME280;67376;44.802;10.332;2023-07-16T10:00:10;100984.19;;;29.84;46.36
78123;BME280;67376;44.802;10.332;2023-07-16T10:02:38;100986.13;;;29.83;46.41
78123;BME280;67376;44.802;10.332;2023-07-16T10:07:39;100989.69;;;29.84;46.68
78123;BME280;67376;44.802;10.332;2023-07-16T10:10:07;100996.03;;;29.84;46.94
78123;BME280;67376;44.802;10.332;2023-07-16T10:12:33;101001.53;;;29.84;46.17
78123;BME280;67376;44.802;10.332;2023-07-16T10:14:59;100994.38;;;29.83;46.12
78123;BME280;67376;44.802;10.332;2023-07-16T10:17:29;100992.44;;;29.84;46.74
78123;BME280;67376;44.802;10.332;2023-07-16T10:20:01;100987.75;;;29.84;45.94
78123;BME280;67376;44.802;10.332;2023-07-16T10:24:57;100987.75;;;29.84;46.57
78123;BME280;67376;44.802;10.332;2023-07-16T10:27:26;100987.75;;;29.84;46.51
78123;BME280;67376;44.802;10.332;2023-07-16T10:29:52;100987.75;;;29.84;47.00
78123;BME280;67376;44.802;10.332;2023-07-16T10:32:19;100987.75;;;29.84;45.98
78123;BME280;67376;44.802;10.332;2023-07-16T10:34:44;100996.03;;;29.84;46.07
78123;BME280;67376;44.802;10.332;2023-07-16T10:37:10;100985.81;;;29.85;46.29
78123;BME280;67376;44.802;10.332;2023-07-16T10:39:35;100981.44;;;29.84;46.36
78123;BME280;67376;44.802;10.332;2023-07-16T10:42:01;100975.94;;;29.84;46.06
78123;BME280;67376;44.802;10.332;2023-07-16T10:44:27;100977.56;;;29.85;46.86
78123;BME280;67376;44.802;10.332;2023-07-16T10:46:52;100970.41;;;29.84;46.57
78123;BME280;67376;44.802;10.332;2023-07-16T10:49:26;100968.50;;;29.84;46.11
78123;BME280;67376;44.802;10.332;2023-07-16T10:51:51;100968.50;;;29.84;46.74
78123;BME280;67376;44.802;10.332;2023-07-16T10:54:19;100962.97;;;29.84;47.08
78123;BME280;67376;44.802;10.332;2023-07-16T10:56:44;100964.91;;;29.84;46.01
78123;BME280;67376;44.802;10.332;2023-07-16T10:59:11;100963.81;;;29.85;46.24
78123;BME280;67376;44.802;10.332;2023-07-16T11:01:37;100960.22;;;29.84;46.21
78123;BME280;67376;44.802;10.332;2023-07-16T11:04:06;100963.81;;;29.85;46.19
78123;BME280;67376;44.802;10.332;2023-07-16T11:06:32;100959.13;;;29.85;46.62
78123;BME280;67376;44.802;10.332;2023-07-16T11:09:05;100952.78;;;29.85;46.08
78123;BME280;67376;44.802;10.332;2023-07-16T11:11:30;100950.03;;;29.85;46.26
78123;BME280;67376;44.802;10.332;2023-07-16T11:13:56;100958.28;;;29.85;46.03
78123;BME280;67376;44.802;10.332;2023-07-16T11:16:21;100947.28;;;29.85;46.73
78123;BME280;67376;44.802;10.332;2023-07-16T11:18:47;100954.72;;;29.84;46.25
78123;BME280;67376;44.802;10.332;2023-07-16T11:21:12;100940.97;;;29.84;47.11
78123;BME280;67376;44.802;10.332;2023-07-16T11:23:37;100944.53;;;29.85;46.03
78123;BME280;67376;44.802;10.332;2023-07-16T11:26:03;100948.09;;;29.85;46.15
78123;BME280;67376;44.802;10.332;2023-07-16T11:28:38;100941.78;;;29.85;46.37
78123;BME280;67376;44.802;10.332;2023-07-16T11:31:16;100936.28;;;29.85;46.73
78123;BME280;67376;44.802;10.332;2023-07-16T11:33:44;100940.66;;;29.86;47.16
78123;BME280;67376;44.802;10.332;2023-07-16T11:36:10;100935.44;;;29.84;45.94
78123;BME280;67376;44.802;10.332;2023-07-16T11:38:36;100936.28;;;29.85;45.99
78123;BME280;67376;44.802;10.332;2023-07-16T11:41:01;100917.00;;;29.85;46.31
78123;BME280;67376;44.802;10.332;2023-07-16T11:43:27;100928.00;;;29.85;46.55
78123;BME280;67376;44.802;10.332;2023-07-16T11:45:52;100926.91;;;29.86;46.00
78123;BME280;67376;44.802;10.332;2023-07-16T11:48:17;100919.75;;;29.85;46.66
78123;BME280;67376;44.802;10.332;2023-07-16T11:50:42;100915.38;;;29.84;46.15
78123;BME280;67376;44.802;10.332;2023-07-16T11:53:08;100921.69;;;29.84;46.01
78123;BME280;67376;44.802;10.332;2023-07-16T11:55:33;100912.31;;;29.85;46.33
78123;BME280;67376;44.802;10.332;2023-07-16T11:57:58;100904.88;;;29.86;46.75
78123;BME280;67376;44.802;10.332;2023-07-16T12:00:24;100908.44;;;29.86;46.94
78123;BME280;67376;44.802;10.332;2023-07-16T12:02:50;100907.63;;;29.86;46.25
78123;BME280;67376;44.802;10.332;2023-07-16T12:05:21;100904.88;;;29.86;46.29
78123;BME280;67376;44.802;10.332;2023-07-16T12:07:49;100907.63;;;29.86;46.55
78123;BME280;67376;44.802;10.332;2023-07-16T12:10:14;100910.38;;;29.86;47.08
78123;BME280;67376;44.802;10.332;2023-07-16T12:12:39;100904.06;;;29.85;46.34
78123;BME280;67376;44.802;10.332;2023-07-16T12:15:06;100896.63;;;29.86;46.49
78123;BME280;67376;44.802;10.332;2023-07-16T12:17:31;100899.38;;;29.86;46.05
78123;BME280;67376;44.802;10.332;2023-07-16T12:19:57;100897.44;;;29.86;45.93
78123;BME280;67376;44.802;10.332;2023-07-16T12:22:22;100894.69;;;29.86;46.20
78123;BME280;67376;44.802;10.332;2023-07-16T12:24:48;100893.88;;;29.86;47.12
78123;BME280;67376;44.802;10.332;2023-07-16T12:27:14;100894.69;;;29.86;46.04
78123;BME280;67376;44.802;10.332;2023-07-16T12:29:39;100899.06;;;29.87;46.04
78123;BME280;67376;44.802;10.332;2023-07-16T12:32:05;100894.69;;;29.86;46.04
78123;BME280;67376;44.802;10.332;2023-07-16T12:34:30;100896.63;;;29.86;46.10
78123;BME280;67376;44.802;10.332;2023-07-16T12:36:55;100903.75;;;29.87;45.88
78123;BME280;67376;44.802;10.332;2023-07-16T12:39:21;100901.00;;;29.87;46.00
78123;BME280;67376;44.802;10.332;2023-07-16T12:41:46;100899.91;;;29.88;46.34
78123;BME280;67376;44.802;10.332;2023-07-16T12:44:11;100895.50;;;29.87;46.63
78123;BME280;67376;44.802;10.332;2023-07-16T12:46:36;100899.06;;;29.87;46.05
78123;BME280;67376;44.802;10.332;2023-07-16T12:49:02;100897.13;;;29.88;46.41
78123;BME280;67376;44.802;10.332;2023-07-16T12:51:27;100904.56;;;29.87;45.96
78123;BME280;67376;44.802;10.332;2023-07-16T12:53:52;100890.00;;;29.87;46.35
78123;BME280;67376;44.802;10.332;2023-07-16T12:56:17;100886.13;;;29.88;46.26
78123;BME280;67376;44.802;10.332;2023-07-16T12:58:43;100893.56;;;29.87;46.61
78123;BME280;67376;44.802;10.332;2023-07-16T13:01:08;100888.88;;;29.88;46.40
78123;BME280;67376;44.802;10.332;2023-07-16T13:03:33;100890.81;;;29.87;45.92
78123;BME280;67376;44.802;10.332;2023-07-16T13:05:58;100884.50;;;29.87;46.08
78123;BME280;67376;44.802;10.332;2023-07-16T13:08:24;100883.66;;;29.86;46.09
78123;BME280;67376;44.802;10.332;2023-07-16T13:10:49;100886.13;;;29.88;46.34
78123;BME280;67376;44.802;10.332;2023-07-16T13:13:14;100885.31;;;29.87;46.55
78123;BME280;67376;44.802;10.332;2023-07-16T13:15:40;100882.56;;;29.87;45.93
78123;BME280;67376;44.802;10.332;2023-07-16T13:18:05;100885.31;;;29.87;46.07
78123;BME280;67376;44.802;10.332;2023-07-16T13:20:30;100878.69;;;29.88;46.07
78123;BME280;67376;44.802;10.332;2023-07-16T13:22:55;100878.69;;;29.88;46.56
78123;BME280;67376;44.802;10.332;2023-07-16T13:25:21;100882.25;;;29.89;46.30
78123;BME280;67376;44.802;10.332;2023-07-16T13:27:46;100873.19;;;29.88;46.07
78123;BME280;67376;44.802;10.332;2023-07-16T13:30:13;100876.75;;;29.89;46.33
78123;BME280;67376;44.802;10.332;2023-07-16T13:32:38;100872.88;;;29.90;45.93
78123;BME280;67376;44.802;10.332;2023-07-16T13:35:04;100870.44;;;29.88;46.67
78123;BME280;67376;44.802;10.332;2023-07-16T13:37:29;100865.75;;;29.89;46.20
78123;BME280;67376;44.802;10.332;2023-07-16T13:39:54;100868.78;;;29.87;45.98
78123;BME280;67376;44.802;10.332;2023-07-16T13:42:20;100868.19;;;29.90;46.24
78123;BME280;67376;44.802;10.332;2023-07-16T13:44:45;100858.31;;;29.89;45.88
78123;BME280;67376;44.802;10.332;2023-07-16T13:47:10;100863.81;;;29.89;45.90
78123;BME280;67376;44.802;10.332;2023-07-16T13:49:35;100861.06;;;29.89;46.10
78123;BME280;67376;44.802;10.332;2023-07-16T13:52:01;100863.50;;;29.91;45.90
78123;BME280;67376;44.802;10.332;2023-07-16T13:54:26;100849.75;;;29.91;45.96
78123;BME280;67376;44.802;10.332;2023-07-16T13:56:51;100851.69;;;29.90;47.04
78123;BME280;67376;44.802;10.332;2023-07-16T14:02:19;100856.06;;;29.92;46.66
78123;BME280;67376;44.802;10.332;2023-07-16T14:04:45;100846.16;;;29.90;45.94
78123;BME280;67376;44.802;10.332;2023-07-16T14:07:10;100846.16;;;29.90;47.09
78123;BME280;67376;44.802;10.332;2023-07-16T14:09:35;100848.94;;;29.90;47.11
78123;BME280;67376;44.802;10.332;2023-07-16T14:12:01;100846.16;;;29.90;46.06
78123;BME280;67376;44.802;10.332;2023-07-16T14:14:26;100843.41;;;29.90;46.08
78123;BME280;67376;44.802;10.332;2023-07-16T14:16:51;100841.50;;;29.91;46.02
78123;BME280;67376;44.802;10.332;2023-07-16T14:19:17;100840.66;;;29.90;46.03
78123;BME280;67376;44.802;10.332;2023-07-16T14:21:42;100834.34;;;29.90;45.97
78123;BME280;67376;44.802;10.332;2023-07-16T14:24:08;100826.59;;;29.92;46.34
78123;BME280;67376;44.802;10.332;2023-07-16T14:26:33;100838.44;;;29.93;46.88
78123;BME280;67376;44.802;10.332;2023-07-16T14:28:59;100838.44;;;29.93;46.98
78123;BME280;67376;44.802;10.332;2023-07-16T14:31:24;100831.81;;;29.94;46.10
78123;BME280;67376;44.802;10.332;2023-07-16T14:33:49;100829.56;;;29.96;45.90
78123;BME280;67376;44.802;10.332;2023-07-16T14:36:15;100832.34;;;29.96;46.08
78123;BME280;67376;44.802;10.332;2023-07-16T14:38:40;100827.66;;;29.96;46.05
78123;BME280;67376;44.802;10.332;2023-07-16T14:41:05;100829.06;;;29.94;46.10
78123;BME280;67376;44.802;10.332;2023-07-16T14:43:32;100822.72;;;29.93;46.64
78123;BME280;67376;44.802;10.332;2023-07-16T14:45:57;100822.72;;;29.93;46.38
78123;BME280;67376;44.802;10.332;2023-07-16T14:48:23;100823.56;;;29.94;46.53
78123;BME280;67376;44.802;10.332;2023-07-16T14:50:48;100825.47;;;29.93;46.50
78123;BME280;67376;44.802;10.332;2023-07-16T14:53:14;100820.78;;;29.94;45.89
78123;BME280;67376;44.802;10.332;2023-07-16T14:55:40;100826.31;;;29.94;46.10
78123;BME280;67376;44.802;10.332;2023-07-16T14:58:05;100828.25;;;29.93;46.83
78123;BME280;67376;44.802;10.332;2023-07-16T15:00:30;100822.72;;;29.93;46.23
78123;BME280;67376;44.802;10.332;2023-07-16T15:02:55;100827.13;;;29.94;46.57
78123;BME280;67376;44.802;10.332;2023-07-16T15:05:21;100818.03;;;29.94;45.85
78123;BME280;67376;44.802;10.332;2023-07-16T15:07:46;100825.47;;;29.93;46.78
78123;BME280;67376;44.802;10.332;2023-07-16T15:10:12;100824.38;;;29.94;46.52
78123;BME280;67376;44.802;10.332;2023-07-16T15:12:37;100819.97;;;29.93;46.01
78123;BME280;67376;44.802;10.332;2023-07-16T15:15:03;100806.22;;;29.93;46.81
78123;BME280;67376;44.802;10.332;2023-07-16T15:17:28;100803.47;;;29.93;46.13
78123;BME280;67376;44.802;10.332;2023-07-16T15:19:54;100808.16;;;29.93;46.75